Time;durP1;ratioP1;P1;durP2;ratioP2;P2;SDS_P1;SDS_P2;PMS_P1;PMS_P2;Temp;Humidity;BMP_temperature;BMP_pressure;BME280_temperature;BME280_humidity;BME280_pressure;Samples;Min_cycle;Max_cycle;Signal;HPM_P1;HPM_P2
2022/05/26 00:01:10;;;;;;;3.88;2.70;;;;;;;;;;4994287;28;20034;-65
2022/05/26 00:03:39;;;;;;;3.28;2.50;;;;;;;;;;4994409;28;20038;-65
2022/05/26 00:06:06;;;;;;;3.65;2.60;;;;;;;;;;4994497;28;20026;-65
2022/05/26 00:08:32;;;;;;;4.25;2.53;;;;;;;;;;4994176;28;20472;-64
2022/05/26 00:10:58;;;;;;;5.32;2.33;;;;;;;;;;4994385;28;20026;-64
2022/05/26 00:13:25;;;;;;;5.22;2.50;;;;;;;;;;4994360;28;20357;-65
2022/05/26 00:15:51;;;;;;;3.63;2.20;;;;;;;;;;4993983;28;20562;-65
2022/05/26 00:18:17;;;;;;;5.15;2.80;;;;;;;;;;4993979;28;20026;-65
2022/05/26 00:20:42;;;;;;;3.75;2.42;;;;;;;;;;4993817;28;20034;-65
2022/05/26 00:23:08;;;;;;;3.85;2.05;;;;;;;;;;4994261;28;20037;-64
2022/05/26 00:25:33;;;;;;;3.30;2.30;;;;;;;;;;4994214;28;20488;-65
2022/05/26 00:27:59;;;;;;;5.97;2.50;;;;;;;;;;4993957;28;20022;-65
2022/05/26 00:30:24;;;;;;;3.65;2.60;;;;;;;;;;4994036;28;20034;-64
2022/05/26 00:32:50;;;;;;;3.78;2.35;;;;;;;;;;4994011;28;20026;-64
2022/05/26 00:35:16;;;;;;;4.70;2.47;;;;;;;;;;4993380;28;20066;-65
2022/05/26 00:37:42;;;;;;;3.15;2.53;;;;;;;;;;4994011;28;20045;-65
2022/05/26 00:40:09;;;;;;;3.70;2.90;;;;;;;;;;4993822;28;20030;-64
2022/05/26 00:42:35;;;;;;;4.47;2.63;;;;;;;;;;4993698;28;20038;-65
2022/05/26 00:45:01;;;;;;;3.50;2.50;;;;;;;;;;4993859;28;20030;-65
2022/05/26 00:47:31;;;;;;;4.43;2.95;;;;;;;;;;4993793;28;20105;-64
2022/05/26 00:50:04;;;;;;;4.63;3.15;;;;;;;;;;4993593;28;20026;-65
2022/05/26 00:52:32;;;;;;;4.07;3.00;;;;;;;;;;4993661;28;20041;-65
2022/05/26 00:55:04;;;;;;;3.70;2.83;;;;;;;;;;4993676;28;20101;-65
2022/05/26 00:57:36;;;;;;;3.50;2.75;;;;;;;;;;4993683;28;20038;-64
2022/05/26 01:00:26;;;;;;;3.83;2.92;;;;;;;;;;4993917;28;20038;-65
2022/05/26 01:03:00;;;;;;;5.40;4.38;;;;;;;;;;4993698;28;20109;-65
2022/05/26 01:05:31;;;;;;;22.90;20.60;;;;;;;;;;4993386;28;20041;-65
2022/05/26 01:07:59;;;;;;;52.42;41.35;;;;;;;;;;4993702;28;20073;-66
2022/05/26 01:10:25;;;;;;;45.15;36.10;;;;;;;;;;4993345;28;20408;-65
2022/05/26 01:12:50;;;;;;;21.17;16.73;;;;;;;;;;4993546;28;20076;-63
2022/05/26 01:15:19;;;;;;;8.18;6.20;;;;;;;;;;4993476;28;20022;-65
2022/05/26 01:18:08;;;;;;;4.55;3.58;;;;;;;;;;4993274;28;20129;-65
2022/05/26 01:20:43;;;;;;;4.53;3.05;;;;;;;;;;4993229;28;20113;-65
2022/05/26 01:23:29;;;;;;;4.32;3.00;;;;;;;;;;4993521;28;20054;-64
2022/05/26 01:26:14;;;;;;;4.88;3.20;;;;;;;;;;4993471;28;20023;-64
2022/05/26 01:28:57;;;;;;;3.92;3.05;;;;;;;;;;4993360;28;20102;-64
2022/05/26 01:31:29;;;;;;;4.68;2.85;;;;;;;;;;4993394;28;20031;-65
2022/05/26 01:34:12;;;;;;;3.67;2.70;;;;;;;;;;4993080;28;20101;-65
2022/05/26 01:36:52;;;;;;;18.77;15.35;;;;;;;;;;4993237;28;20058;-65
2022/05/26 01:39:41;;;;;;;21.63;18.58;;;;;;;;;;4993388;28;20030;-65
2022/05/26 01:42:31;;;;;;;6.85;5.47;;;;;;;;;;4993259;28;20026;-65
2022/05/26 01:44:57;;;;;;;5.65;3.10;;;;;;;;;;4993287;28;20144;-66
2022/05/26 01:47:40;;;;;;;4.57;2.50;;;;;;;;;;4995101;28;20026;-66
2022/05/26 01:50:28;;;;;;;3.78;2.40;;;;;;;;;;4997034;28;20037;-64
2022/05/26 01:53:15;;;;;;;4.35;2.35;;;;;;;;;;4996982;28;20105;-67
2022/05/26 01:56:39;;;;;;;2.80;2.05;;;;;;;;;;4996873;28;20117;-65
2022/05/26 01:59:28;;;;;;;3.83;2.25;;;;;;;;;;4956023;29;20542;-65
2022/05/26 02:01:59;;;;;;;7.35;3.63;;;;;;;;;;4950772;29;20508;-67
2022/05/26 02:04:29;;;;;;;3.55;2.00;;;;;;;;;;4955702;29;20043;-67
2022/05/26 02:07:04;;;;;;;2.13;1.80;;;;;;;;;;4955985;29;20039;-66
2022/05/26 02:09:38;;;;;;;2.90;2.10;;;;;;;;;;4955841;29;20074;-67
2022/05/26 02:12:18;;;;;;;4.35;2.00;;;;;;;;;;4955925;29;20090;-66
2022/05/26 02:14:45;;;;;;;;;;;;;;;;;;4956313;29;20106;-65
2022/05/26 02:17:32;;;;;;;5.20;1.90;;;;;;;;;;4954898;29;19919;-64
2022/05/26 02:20:12;;;;;;;2.80;2.00;;;;;;;;;;4938804;29;20130;-65
2022/05/26 02:23:08;;;;;;;3.20;1.90;;;;;;;;;;4936532;29;20035;-64
2022/05/26 02:25:34;;;;;;;2.83;1.95;;;;;;;;;;4936515;29;20065;-64
2022/05/26 02:28:00;;;;;;;3.90;2.10;;;;;;;;;;4936395;29;20103;-67
2022/05/26 02:30:30;;;;;;;3.58;2.20;;;;;;;;;;4966702;28;20626;-66
2022/05/26 02:32:57;;;;;;;3.75;2.17;;;;;;;;;;4976476;28;20023;-65
2022/05/26 02:35:34;;;;;;;3.67;2.10;;;;;;;;;;4976552;28;20375;-67
2022/05/26 02:38:01;;;;;;;3.53;2.00;;;;;;;;;;4976818;28;20415;-67
2022/05/26 02:40:28;;;;;;;4.13;2.35;;;;;;;;;;4976605;28;20111;-67
2022/05/26 02:43:00;;;;;;;4.45;2.00;;;;;;;;;;4976635;28;20042;-67
2022/05/26 02:45:42;;;;;;;2.58;2.10;;;;;;;;;;4975476;28;20034;-67
2022/05/26 02:48:34;;;;;;;2.63;2.20;;;;;;;;;;4976603;28;20487;-66
2022/05/26 02:51:26;;;;;;;2.45;1.90;;;;;;;;;;4976547;28;20033;-66
2022/05/26 02:53:52;;;;;;;6.15;2.15;;;;;;;;;;4976394;28;20093;-65
2022/05/26 02:56:41;;;;;;;3.72;2.20;;;;;;;;;;4976304;28;20471;-65
2022/05/26 02:59:34;;;;;;;2.85;1.80;;;;;;;;;;4976185;28;20027;-68
2022/05/26 03:02:14;;;;;;;3.17;2.20;;;;;;;;;;4976138;28;20027;-65
2022/05/26 03:04:45;;;;;;;2.43;2.03;;;;;;;;;;4976140;28;20057;-66
2022/05/26 03:07:20;;;;;;;2.88;2.10;;;;;;;;;;4976284;28;20033;-65
2022/05/26 03:09:46;;;;;;;4.18;2.25;;;;;;;;;;4976195;28;20039;-67
2022/05/26 03:12:35;;;;;;;3.83;2.10;;;;;;;;;;4976125;28;20572;-66
2022/05/26 03:15:01;;;;;;;2.25;1.75;;;;;;;;;;4975895;28;20112;-66
2022/05/26 03:17:27;;;;;;;4.05;2.10;;;;;;;;;;4978809;28;20042;-66
2022/05/26 03:19:53;;;;;;;2.95;2.03;;;;;;;;;;4995312;28;20037;-67
2022/05/26 03:22:19;;;;;;;4.45;1.83;;;;;;;;;;4995296;28;20379;-67
2022/05/26 03:24:45;;;;;;;3.08;1.95;;;;;;;;;;4995457;28;20030;-65
2022/05/26 03:27:12;;;;;;;2.60;1.85;;;;;;;;;;4995283;28;20110;-66
2022/05/26 03:29:37;;;;;;;3.05;1.67;;;;;;;;;;4994972;28;20024;-66
2022/05/26 03:32:04;;;;;;;3.15;1.88;;;;;;;;;;4995037;28;20452;-67
2022/05/26 03:42:44;;;;;;;10.73;2.03;;;;;;;;;;4995045;28;20052;-65
2022/05/26 03:45:12;;;;;;;3.70;1.40;;;;;;;;;;4994720;28;20446;-65
2022/05/26 03:47:39;;;;;;;2.75;1.50;;;;;;;;;;4993529;28;20045;-67
2022/05/26 03:50:06;;;;;;;5.88;1.58;;;;;;;;;;4994691;28;20030;-66
2022/05/26 03:52:31;;;;;;;1.73;1.30;;;;;;;;;;4994670;28;20022;-67
2022/05/26 03:54:57;;;;;;;2.28;1.40;;;;;;;;;;4994620;28;20030;-65
2022/05/26 03:57:27;;;;;;;3.88;1.30;;;;;;;;;;4994428;28;20031;-67
2022/05/26 03:59:53;;;;;;;2.35;1.52;;;;;;;;;;4994423;28;20530;-66
2022/05/26 04:02:18;;;;;;;2.40;1.35;;;;;;;;;;4994548;28;20035;-66
2022/05/26 04:04:44;;;;;;;2.83;1.42;;;;;;;;;;4994576;28;20030;-65
2022/05/26 04:07:11;;;;;;;2.38;1.30;;;;;;;;;;4994664;28;20034;-65
2022/05/26 04:09:37;;;;;;;3.60;1.50;;;;;;;;;;4993912;28;20027;-65
2022/05/26 04:12:04;;;;;;;6.57;1.50;;;;;;;;;;4994272;28;20498;-65
2022/05/26 04:14:31;;;;;;;3.75;1.40;;;;;;;;;;4994030;28;20038;-67
2022/05/26 04:16:58;;;;;;;3.20;1.27;;;;;;;;;;4994104;28;20602;-67
2022/05/26 04:19:23;;;;;;;2.47;1.23;;;;;;;;;;4993847;28;20121;-67
2022/05/26 04:24:33;;;;;;;6.43;1.20;;;;;;;;;;4994314;28;20033;-66
2022/05/26 04:26:58;;;;;;;2.35;1.15;;;;;;;;;;4994100;28;20030;-67
2022/05/26 04:29:24;;;;;;;4.28;1.33;;;;;;;;;;4993888;28;20482;-66
2022/05/26 04:31:51;;;;;;;3.85;1.33;;;;;;;;;;4994023;28;20467;-66
2022/05/26 04:34:17;;;;;;;2.00;1.17;;;;;;;;;;4993852;28;20113;-67
2022/05/26 04:36:43;;;;;;;2.47;1.30;;;;;;;;;;4993603;28;20042;-66
2022/05/26 04:39:08;;;;;;;3.45;1.50;;;;;;;;;;4993885;28;20038;-66
2022/05/26 04:41:34;;;;;;;4.93;1.48;;;;;;;;;;4993785;28;20081;-65
2022/05/26 04:44:00;;;;;;;6.55;1.23;;;;;;;;;;4993776;28;20034;-66
2022/05/26 04:46:25;;;;;;;1.42;1.27;;;;;;;;;;4993746;28;20081;-66
2022/05/26 04:48:51;;;;;;;8.20;1.35;;;;;;;;;;4993796;28;20085;-67
2022/05/26 04:51:16;;;;;;;21.20;2.65;;;;;;;;;;4993588;28;20062;-66
2022/05/26 04:53:42;;;;;;;2.28;1.08;;;;;;;;;;4993732;28;20026;-66
2022/05/26 04:56:07;;;;;;;5.47;1.50;;;;;;;;;;4993615;28;20085;-65
2022/05/26 04:58:33;;;;;;;2.80;1.20;;;;;;;;;;4993283;28;20471;-66
2022/05/26 05:00:58;;;;;;;4.40;1.10;;;;;;;;;;4993581;28;20031;-66
2022/05/26 05:03:24;;;;;;;3.72;1.50;;;;;;;;;;4993565;28;20387;-66
2022/05/26 05:05:50;;;;;;;19.45;2.60;;;;;;;;;;4993247;28;20038;-66
2022/05/26 05:08:15;;;;;;;3.78;1.73;;;;;;;;;;4993515;28;20379;-66
2022/05/26 05:10:41;;;;;;;12.35;1.40;;;;;;;;;;4991867;28;20058;-66
2022/05/26 05:13:09;;;;;;;3.65;1.33;;;;;;;;;;4993420;28;20026;-67
2022/05/26 05:15:41;;;;;;;3.13;1.17;;;;;;;;;;4993238;28;20027;-67
2022/05/26 05:18:07;;;;;;;3.40;1.05;;;;;;;;;;4993039;28;20034;-66
2022/05/26 05:20:34;;;;;;;3.15;1.58;;;;;;;;;;4992007;28;20344;-63
2022/05/26 05:23:06;;;;;;;3.40;1.27;;;;;;;;;;4996328;28;20038;-66
2022/05/26 05:25:39;;;;;;;20.48;1.73;;;;;;;;;;4997280;28;20105;-66
2022/05/26 05:28:10;;;;;;;2.90;1.30;;;;;;;;;;4997392;28;20100;-66
2022/05/26 05:30:41;;;;;;;10.35;1.50;;;;;;;;;;4997231;28;20037;-66
2022/05/26 05:33:28;;;;;;;8.80;2.30;;;;;;;;;;4997366;28;20029;-66
2022/05/26 05:36:00;;;;;;;4.88;1.40;;;;;;;;;;4997192;28;20033;-65
2022/05/26 05:38:26;;;;;;;7.22;1.35;;;;;;;;;;4997165;28;20022;-66
2022/05/26 05:40:51;;;;;;;8.90;1.48;;;;;;;;;;4996922;28;20423;-65
2022/05/26 05:43:17;;;;;;;7.78;1.60;;;;;;;;;;4997073;28;20026;-65
2022/05/26 05:45:43;;;;;;;5.93;1.83;;;;;;;;;;4997394;28;20030;-65
2022/05/26 05:48:09;;;;;;;8.13;1.20;;;;;;;;;;4997128;28;20072;-66
2022/05/26 05:50:34;;;;;;;4.65;1.52;;;;;;;;;;4996997;28;20038;-65
2022/05/26 05:53:00;;;;;;;11.45;1.42;;;;;;;;;;4996920;28;20030;-65
2022/05/26 05:55:26;;;;;;;10.20;1.45;;;;;;;;;;4996787;28;20038;-65
2022/05/26 05:57:51;;;;;;;5.22;1.25;;;;;;;;;;4996821;28;20026;-66
2022/05/26 06:00:17;;;;;;;3.60;1.15;;;;;;;;;;4996926;28;20034;-65
2022/05/26 06:02:43;;;;;;;2.85;1.40;;;;;;;;;;4996824;28;20101;-65
2022/05/26 06:05:09;;;;;;;5.95;1.50;;;;;;;;;;4996683;28;20050;-65
2022/05/26 06:07:38;;;;;;;5.00;1.40;;;;;;;;;;4996630;28;20026;-66
2022/05/26 06:10:04;;;;;;;6.65;1.67;;;;;;;;;;4996438;28;20057;-65
2022/05/26 06:12:29;;;;;;;6.53;1.80;;;;;;;;;;4996500;28;20022;-66
2022/05/26 06:14:55;;;;;;;6.28;1.55;;;;;;;;;;4996609;28;20022;-65
2022/05/26 06:17:20;;;;;;;4.88;1.55;;;;;;;;;;4996105;28;20070;-66
2022/05/26 06:19:45;;;;;;;9.20;1.52;;;;;;;;;;4996191;28;20487;-65
2022/05/26 06:22:17;;;;;;;4.00;1.35;;;;;;;;;;4996474;28;20026;-66
2022/05/26 06:24:43;;;;;;;4.13;1.35;;;;;;;;;;4996265;28;20022;-66
2022/05/26 06:29:57;;;;;;;14.30;1.95;;;;;;;;;;4996463;28;20037;-66
2022/05/26 06:37:55;;;;;;;4.03;1.10;;;;;;;;;;4996261;28;20049;-66
2022/05/26 06:40:21;;;;;;;5.32;1.30;;;;;;;;;;4996012;28;20464;-65
2022/05/26 06:42:48;;;;;;;8.23;1.40;;;;;;;;;;4996042;28;20026;-65
2022/05/26 06:45:15;;;;;;;6.90;1.40;;;;;;;;;;4996117;28;20030;-65
2022/05/26 06:47:41;;;;;;;8.85;1.55;;;;;;;;;;4995945;28;20105;-65
2022/05/26 06:50:08;;;;;;;12.98;1.77;;;;;;;;;;4995804;28;20085;-65
2022/05/26 06:52:33;;;;;;;7.22;1.40;;;;;;;;;;4995731;28;20468;-65
2022/05/26 06:55:01;;;;;;;6.05;1.10;;;;;;;;;;4995869;28;20026;-65
2022/05/26 06:57:26;;;;;;;2.72;1.10;;;;;;;;;;4996104;28;20217;-65
2022/05/26 06:59:52;;;;;;;3.92;1.20;;;;;;;;;;4995133;28;20062;-66
2022/05/26 07:02:17;;;;;;;2.53;1.10;;;;;;;;;;4995165;28;20033;-64
2022/05/26 07:04:43;;;;;;;4.22;1.10;;;;;;;;;;4994625;28;20029;-65
2022/05/26 07:07:12;;;;;;;3.00;1.13;;;;;;;;;;4995488;28;20541;-64
2022/05/26 07:09:38;;;;;;;6.00;1.33;;;;;;;;;;4995630;28;20034;-65
2022/05/26 07:12:04;;;;;;;8.43;2.45;;;;;;;;;;4995627;28;20027;-65
2022/05/26 07:14:29;;;;;;;4.90;1.30;;;;;;;;;;4995542;28;20030;-66
2022/05/26 07:16:55;;;;;;;4.20;1.35;;;;;;;;;;4995203;28;20050;-65
2022/05/26 07:19:21;;;;;;;9.50;5.07;;;;;;;;;;4994927;28;20467;-65
2022/05/26 07:21:48;;;;;;;6.25;1.42;;;;;;;;;;4994972;28;20566;-66
2022/05/26 07:24:17;;;;;;;4.25;1.38;;;;;;;;;;4995264;28;20479;-65
2022/05/26 07:26:42;;;;;;;7.30;2.60;;;;;;;;;;4995366;28;20044;-65
2022/05/26 07:29:08;;;;;;;11.68;2.88;;;;;;;;;;4995258;28;20458;-66
2022/05/26 07:31:34;;;;;;;1.63;1.10;;;;;;;;;;4995307;28;20480;-65
2022/05/26 07:33:59;;;;;;;4.00;1.42;;;;;;;;;;4995169;28;20061;-64
2022/05/26 07:41:59;;;;;;;1.83;1.10;;;;;;;;;;4995118;28;20029;-65
2022/05/26 07:44:25;;;;;;;8.00;1.50;;;;;;;;;;4994037;28;20022;-65
2022/05/26 07:46:51;;;;;;;6.65;1.33;;;;;;;;;;4994929;28;20161;-65
2022/05/26 07:49:17;;;;;;;5.65;3.13;;;;;;;;;;4994627;28;20534;-66
2022/05/26 07:51:43;;;;;;;8.20;1.50;;;;;;;;;;4994401;28;20105;-65
2022/05/26 07:54:08;;;;;;;11.20;2.00;;;;;;;;;;4994611;28;20497;-65
2022/05/26 07:56:39;;;;;;;8.00;1.67;;;;;;;;;;4989426;28;20030;-65
2022/05/26 07:59:06;;;;;;;5.35;1.75;;;;;;;;;;4993994;28;20100;-65
2022/05/26 08:01:33;;;;;;;2.92;1.05;;;;;;;;;;4994211;28;20023;-65
2022/05/26 08:03:58;;;;;;;5.43;1.38;;;;;;;;;;4994447;28;20030;-64
2022/05/26 08:06:24;;;;;;;8.82;1.40;;;;;;;;;;4993980;28;20561;-65
2022/05/26 08:08:51;;;;;;;7.35;1.60;;;;;;;;;;4994223;28;20037;-64
2022/05/26 08:11:16;;;;;;;4.88;1.30;;;;;;;;;;4993878;28;20030;-65
2022/05/26 08:13:42;;;;;;;4.90;1.02;;;;;;;;;;4993955;28;20034;-64
2022/05/26 08:16:07;;;;;;;5.93;1.10;;;;;;;;;;4994063;28;20046;-64
2022/05/26 08:18:33;;;;;;;7.57;1.30;;;;;;;;;;4993858;28;20038;-64
2022/05/26 08:21:16;;;;;;;7.68;1.35;;;;;;;;;;4993819;28;20027;-65
2022/05/26 08:23:41;;;;;;;3.33;1.20;;;;;;;;;;4993900;28;20424;-64
2022/05/26 08:26:07;;;;;;;4.28;1.65;;;;;;;;;;4993801;28;20117;-65
2022/05/26 08:28:33;;;;;;;3.92;1.50;;;;;;;;;;4993862;28;20031;-64
2022/05/26 08:30:59;;;;;;;2.67;1.13;;;;;;;;;;4993375;28;20476;-64
2022/05/26 08:33:26;;;;;;;1.85;1.00;;;;;;;;;;4993780;28;20513;-63
2022/05/26 08:36:09;;;;;;;3.03;0.98;;;;;;;;;;4993264;28;20361;-65
2022/05/26 08:38:36;;;;;;;2.33;1.00;;;;;;;;;;4993803;28;20030;-64
2022/05/26 08:41:02;;;;;;;4.05;1.08;;;;;;;;;;4993598;28;20026;-64
2022/05/26 08:43:41;;;;;;;5.22;1.40;;;;;;;;;;4993673;28;20480;-64
2022/05/26 08:46:09;;;;;;;2.63;0.88;;;;;;;;;;4993579;28;20029;-64
2022/05/26 08:48:45;;;;;;;3.70;1.05;;;;;;;;;;4993346;28;20049;-64
2022/05/26 08:51:19;;;;;;;6.90;1.77;;;;;;;;;;4993231;28;20018;-64
2022/05/26 08:53:44;;;;;;;2.92;0.95;;;;;;;;;;4993479;28;20025;-66
2022/05/26 08:56:14;;;;;;;8.43;1.15;;;;;;;;;;4993181;28;20030;-64
2022/05/26 08:58:47;;;;;;;12.85;2.53;;;;;;;;;;4993518;28;20551;-64
2022/05/26 09:01:18;;;;;;;3.75;1.25;;;;;;;;;;4993201;28;20030;-65
2022/05/26 09:03:44;;;;;;;9.82;1.10;;;;;;;;;;4993056;28;20081;-64
2022/05/26 09:06:16;;;;;;;7.38;1.10;;;;;;;;;;4993367;28;20058;-63
2022/05/26 09:14:38;;;;;;;6.75;1.25;;;;;;;;;;4993304;28;20026;-64
2022/05/26 09:17:07;;;;;;;5.67;1.50;;;;;;;;;;4993080;28;20054;-63
2022/05/26 09:19:49;;;;;;;2.17;1.30;;;;;;;;;;4986793;28;20415;-66
2022/05/26 09:22:47;;;;;;;5.70;1.73;;;;;;;;;;4993332;28;20030;-65
2022/05/26 09:25:30;;;;;;;4.28;1.13;;;;;;;;;;4993074;28;20506;-63
2022/05/26 09:27:55;;;;;;;5.53;1.30;;;;;;;;;;4992923;28;20125;-64
2022/05/26 09:30:30;;;;;;;6.95;1.30;;;;;;;;;;4992795;28;20098;-64
2022/05/26 09:32:56;;;;;;;4.05;0.93;;;;;;;;;;4993016;28;20041;-65
2022/05/26 09:35:32;;;;;;;14.55;2.05;;;;;;;;;;4993117;28;20084;-64
2022/05/26 09:38:05;;;;;;;2.47;0.90;;;;;;;;;;4992999;28;20041;-64
2022/05/26 09:40:37;;;;;;;3.10;1.00;;;;;;;;;;4992841;28;20061;-65
2022/05/26 09:43:26;;;;;;;8.73;1.40;;;;;;;;;;4992981;28;20050;-65
2022/05/26 09:45:55;;;;;;;9.27;2.00;;;;;;;;;;4992938;28;20035;-64
2022/05/26 09:48:29;;;;;;;3.05;1.00;;;;;;;;;;4991443;28;20027;-64
2022/05/26 09:51:12;;;;;;;8.27;1.88;;;;;;;;;;4992869;28;20026;-65
2022/05/26 09:53:42;;;;;;;3.80;1.10;;;;;;;;;;4992857;28;20026;-65
2022/05/26 09:56:11;;;;;;;3.90;1.20;;;;;;;;;;4992816;28;20057;-64
2022/05/26 09:58:42;;;;;;;3.37;1.53;;;;;;;;;;4992868;28;20122;-66
2022/05/26 10:01:31;;;;;;;3.97;1.20;;;;;;;;;;4992673;28;20029;-65
2022/05/26 10:03:57;;;;;;;3.70;1.10;;;;;;;;;;4993001;28;20046;-66
2022/05/26 10:06:33;;;;;;;5.90;1.30;;;;;;;;;;4992837;28;20023;-66
2022/05/26 10:09:10;;;;;;;4.20;0.93;;;;;;;;;;4995591;28;20454;-65
2022/05/26 10:11:51;;;;;;;4.85;1.45;;;;;;;;;;4996507;28;20052;-65
2022/05/26 10:14:34;;;;;;;5.20;1.40;;;;;;;;;;4996470;28;20049;-65
2022/05/26 10:17:09;;;;;;;8.50;1.73;;;;;;;;;;4995931;28;20070;-66
2022/05/26 10:20:03;;;;;;;5.07;1.30;;;;;;;;;;4990250;28;20388;-64
2022/05/26 10:22:41;;;;;;;4.45;1.50;;;;;;;;;;4995970;28;20041;-65
2022/05/26 10:25:07;;;;;;;8.15;1.30;;;;;;;;;;4996228;28;20053;-66
2022/05/26 10:27:32;;;;;;;5.07;1.70;;;;;;;;;;4996089;28;20038;-66
2022/05/26 10:30:09;;;;;;;4.90;1.35;;;;;;;;;;4995722;28;20392;-66
2022/05/26 10:32:49;;;;;;;2.08;1.10;;;;;;;;;;4995090;28;20041;-65
2022/05/26 10:35:31;;;;;;;3.75;1.17;;;;;;;;;;4995958;28;20101;-66
2022/05/26 10:38:18;;;;;;;3.22;0.93;;;;;;;;;;4994783;28;20026;-65
2022/05/26 10:41:09;;;;;;;6.32;1.00;;;;;;;;;;4996004;28;20045;-65
2022/05/26 10:43:44;;;;;;;2.75;0.90;;;;;;;;;;4996023;28;20030;-66
2022/05/26 10:46:09;;;;;;;4.32;1.38;;;;;;;;;;4995709;28;20122;-66
2022/05/26 10:48:57;;;;;;;4.65;1.20;;;;;;;;;;4995668;28;20077;-66
2022/05/26 10:51:31;;;;;;;3.42;1.45;;;;;;;;;;4995784;28;20026;-66
2022/05/26 10:54:14;;;;;;;4.97;2.20;;;;;;;;;;4995600;28;20495;-66
2022/05/26 10:57:12;;;;;;;14.43;2.00;;;;;;;;;;4994256;28;20045;-66
2022/05/26 11:00:07;;;;;;;5.43;1.27;;;;;;;;;;4993379;28;20525;-66
2022/05/26 11:02:48;;;;;;;7.22;1.17;;;;;;;;;;4995422;28;20034;-65
2022/05/26 11:05:18;;;;;;;9.05;1.73;;;;;;;;;;4995448;28;20034;-66
2022/05/26 11:07:53;;;;;;;5.35;1.40;;;;;;;;;;4995133;28;20034;-67
2022/05/26 11:10:31;;;;;;;2.75;1.40;;;;;;;;;;4995465;28;20427;-65
2022/05/26 11:13:44;;;;;;;2.70;0.90;;;;;;;;;;4995314;28;20022;-64
2022/05/26 11:19:29;;;;;;;6.72;1.45;;;;;;;;;;4956716;28;20054;-66
2022/05/26 11:21:55;;;;;;;7.25;1.52;;;;;;;;;;4954155;29;20032;-66
2022/05/26 11:24:23;;;;;;;6.80;1.33;;;;;;;;;;4954203;28;20038;-67
2022/05/26 11:26:58;;;;;;;9.98;1.50;;;;;;;;;;4954266;28;20376;-66
2022/05/26 11:29:31;;;;;;;4.72;1.40;;;;;;;;;;4953971;29;20023;-66
2022/05/26 11:38:15;;;;;;;3.35;1.02;;;;;;;;;;4945228;29;20112;-65
2022/05/26 11:41:01;;;;;;;3.97;1.35;;;;;;;;;;4936366;29;20400;-64
2022/05/26 11:43:43;;;;;;;6.88;1.23;;;;;;;;;;4953797;29;20035;-64
2022/05/26 11:46:32;;;;;;;3.10;1.17;;;;;;;;;;4953697;29;20130;-66
2022/05/26 11:48:57;;;;;;;5.50;1.20;;;;;;;;;;4953541;29;20066;-66
2022/05/26 11:51:28;;;;;;;4.82;1.13;;;;;;;;;;4971172;28;20116;-67
2022/05/26 11:53:54;;;;;;;4.45;1.10;;;;;;;;;;4994312;28;20475;-67
2022/05/26 11:56:25;;;;;;;6.68;1.20;;;;;;;;;;4994633;28;20037;-66
2022/05/26 11:59:26;;;;;;;5.75;1.17;;;;;;;;;;4994327;28;20026;-66
2022/05/26 12:01:58;;;;;;;5.13;1.40;;;;;;;;;;4994653;28;20030;-66
2022/05/26 12:04:30;;;;;;;2.88;1.27;;;;;;;;;;4994560;28;20105;-67
2022/05/26 12:06:55;;;;;;;9.48;1.35;;;;;;;;;;4994311;28;20034;-66
2022/05/26 12:09:29;;;;;;;4.15;1.00;;;;;;;;;;4994568;28;20026;-66
2022/05/26 12:12:08;;;;;;;3.72;1.25;;;;;;;;;;4994014;28;20033;-66
2022/05/26 12:15:06;;;;;;;8.48;1.50;;;;;;;;;;4994091;28;20022;-65
2022/05/26 12:17:53;;;;;;;5.90;1.77;;;;;;;;;;4982370;28;20053;-66
2022/05/26 12:20:21;;;;;;;9.80;1.20;;;;;;;;;;4974670;28;20034;-66
2022/05/26 12:23:09;;;;;;;4.50;1.13;;;;;;;;;;4974715;28;20363;-66
2022/05/26 12:25:36;;;;;;;5.72;1.00;;;;;;;;;;4974489;28;20124;-66
2022/05/26 12:28:14;;;;;;;5.00;1.00;;;;;;;;;;4974408;28;20034;-66
2022/05/26 12:30:45;;;;;;;6.05;1.25;;;;;;;;;;4973729;28;20030;-64
2022/05/26 12:33:25;;;;;;;4.30;1.20;;;;;;;;;;4974397;28;20428;-67
2022/05/26 12:36:21;;;;;;;9.32;1.30;;;;;;;;;;4974186;28;20196;-66
2022/05/26 12:38:50;;;;;;;5.63;1.20;;;;;;;;;;4974387;28;20054;-66
2022/05/26 12:41:34;;;;;;;7.85;1.35;;;;;;;;;;4974186;28;20023;-66
2022/05/26 12:44:22;;;;;;;5.03;1.10;;;;;;;;;;4974051;28;20089;-66
2022/05/26 12:47:12;;;;;;;8.27;1.38;;;;;;;;;;4971920;28;20054;-66
2022/05/26 12:50:06;;;;;;;5.70;1.50;;;;;;;;;;4971805;28;20035;-66
2022/05/26 12:52:39;;;;;;;31.13;1.48;;;;;;;;;;4971782;28;20042;-66
2022/05/26 12:55:33;;;;;;;4.80;1.20;;;;;;;;;;4971553;28;20026;-65
2022/05/26 12:58:07;;;;;;;10.88;1.20;;;;;;;;;;4971852;28;20053;-66
2022/05/26 13:00:35;;;;;;;9.80;1.35;;;;;;;;;;4971773;28;20436;-65
2022/05/26 13:03:25;;;;;;;7.60;1.10;;;;;;;;;;4971946;28;20126;-67
2022/05/26 13:06:07;;;;;;;7.03;1.15;;;;;;;;;;4971621;28;20030;-65
2022/05/26 13:08:47;;;;;;;8.15;1.25;;;;;;;;;;4971753;28;20081;-66
2022/05/26 13:11:19;;;;;;;7.50;1.20;;;;;;;;;;4971376;28;20038;-65
2022/05/26 13:13:51;;;;;;;7.20;1.10;;;;;;;;;;4971642;28;20077;-65
2022/05/26 13:16:23;;;;;;;7.75;1.00;;;;;;;;;;4971382;28;20393;-66
2022/05/26 13:18:50;;;;;;;7.65;1.05;;;;;;;;;;4963926;28;20031;-69
2022/05/26 13:21:22;;;;;;;5.78;0.98;;;;;;;;;;4952198;29;20028;-69
2022/05/26 13:23:51;;;;;;;12.95;0.95;;;;;;;;;;4962705;28;20042;-66
2022/05/26 13:26:19;;;;;;;3.95;0.93;;;;;;;;;;4973832;28;20425;-65
2022/05/26 13:28:49;;;;;;;3.88;1.00;;;;;;;;;;4973730;28;20027;-66
2022/05/26 13:34:03;;;;;;;5.95;0.93;;;;;;;;;;4973924;28;20045;-66
2022/05/26 13:36:39;;;;;;;10.70;1.27;;;;;;;;;;4981614;28;20105;-66
2022/05/26 13:39:13;;;;;;;3.40;0.93;;;;;;;;;;5001259;28;20026;-64
2022/05/26 13:41:47;;;;;;;3.72;0.93;;;;;;;;;;4996799;28;20105;-66
2022/05/26 13:44:27;;;;;;;7.07;1.02;;;;;;;;;;5000047;28;20027;-65
2022/05/26 13:46:53;;;;;;;7.15;1.40;;;;;;;;;;5005767;28;20398;-66
2022/05/26 13:49:32;;;;;;;5.47;1.08;;;;;;;;;;5004348;28;20088;-66
2022/05/26 13:52:00;;;;;;;9.25;0.90;;;;;;;;;;5001527;28;20097;-66
2022/05/26 13:54:31;;;;;;;7.40;1.02;;;;;;;;;;5002437;28;20032;-66
2022/05/26 13:57:02;;;;;;;4.00;1.15;;;;;;;;;;4996519;28;20089;-65
2022/05/26 13:59:34;;;;;;;1.63;0.60;;;;;;;;;;4995350;28;20026;-66
2022/05/26 14:02:21;;;;;;;3.50;1.00;;;;;;;;;;4996551;28;20026;-66
2022/05/26 14:05:00;;;;;;;8.40;1.20;;;;;;;;;;4996471;28;20030;-66
2022/05/26 14:07:33;;;;;;;6.60;1.10;;;;;;;;;;4996332;28;20029;-66
2022/05/26 14:10:29;;;;;;;7.45;1.10;;;;;;;;;;4996323;28;20042;-66
2022/05/26 14:13:27;;;;;;;5.70;1.05;;;;;;;;;;4993745;28;20030;-67
2022/05/26 14:15:52;;;;;;;3.28;0.70;;;;;;;;;;4991803;28;20047;-66
2022/05/26 14:18:42;;;;;;;7.60;1.20;;;;;;;;;;4996023;28;20033;-65
2022/05/26 14:21:14;;;;;;;3.95;0.82;;;;;;;;;;4996335;28;20022;-66
2022/05/26 14:23:57;;;;;;;6.05;1.20;;;;;;;;;;4995883;28;20038;-65
2022/05/26 14:26:39;;;;;;;11.13;1.60;;;;;;;;;;4995976;28;20026;-65
2022/05/26 14:29:16;;;;;;;3.67;0.85;;;;;;;;;;4996002;28;20027;-67
2022/05/26 14:32:12;;;;;;;1.17;0.60;;;;;;;;;;4995823;28;20061;-66
2022/05/26 14:34:40;;;;;;;7.88;0.88;;;;;;;;;;4998311;28;20101;-66
2022/05/26 14:37:06;;;;;;;6.32;0.90;;;;;;;;;;4994532;28;20022;-67
2022/05/26 14:39:32;;;;;;;4.05;0.80;;;;;;;;;;4996007;28;20041;-66
2022/05/26 14:41:58;;;;;;;3.08;0.70;;;;;;;;;;4995870;28;20129;-66
2022/05/26 14:44:24;;;;;;;8.80;1.25;;;;;;;;;;4995801;28;20468;-66
2022/05/26 14:46:50;;;;;;;5.45;1.10;;;;;;;;;;4995590;28;20048;-66
2022/05/26 14:49:16;;;;;;;6.57;0.90;;;;;;;;;;4995663;28;20057;-66
2022/05/26 14:51:42;;;;;;;5.72;1.00;;;;;;;;;;4995425;28;20026;-66
2022/05/26 14:56:54;;;;;;;3.92;0.80;;;;;;;;;;4995713;28;20034;-66
2022/05/26 14:59:20;;;;;;;4.80;0.98;;;;;;;;;;4995573;28;20037;-67
2022/05/26 15:01:46;;;;;;;7.10;1.08;;;;;;;;;;4995526;28;20030;-66
2022/05/26 15:04:12;;;;;;;5.53;0.90;;;;;;;;;;4995185;28;20034;-66
2022/05/26 15:06:42;;;;;;;4.82;1.00;;;;;;;;;;4995030;28;20105;-66
2022/05/26 15:09:11;;;;;;;4.93;0.80;;;;;;;;;;4995402;28;20018;-66
2022/05/26 15:11:37;;;;;;;1.90;0.93;;;;;;;;;;4995832;28;20037;-66
2022/05/26 15:14:03;;;;;;;4.45;0.90;;;;;;;;;;5003633;28;20510;-67
2022/05/26 15:16:30;;;;;;;4.28;0.80;;;;;;;;;;5004330;28;20070;-66
2022/05/26 15:18:55;;;;;;;7.72;1.45;;;;;;;;;;4997890;28;20034;-66
2022/05/26 15:21:21;;;;;;;3.58;1.00;;;;;;;;;;4995903;28;20595;-66
2022/05/26 15:23:47;;;;;;;5.78;0.80;;;;;;;;;;4995141;28;20451;-66
2022/05/26 15:26:13;;;;;;;9.35;1.60;;;;;;;;;;4995410;28;20058;-66
2022/05/26 15:28:42;;;;;;;3.88;0.80;;;;;;;;;;4995170;28;20403;-66
2022/05/26 15:31:07;;;;;;;4.70;0.73;;;;;;;;;;4994895;28;20048;-66
2022/05/26 15:33:33;;;;;;;2.47;0.80;;;;;;;;;;4994896;28;20519;-64
2022/05/26 15:35:59;;;;;;;6.03;1.23;;;;;;;;;;4994598;28;20048;-65
2022/05/26 15:38:30;;;;;;;2.58;0.80;;;;;;;;;;4994979;28;20022;-66
2022/05/26 15:40:55;;;;;;;7.35;0.80;;;;;;;;;;4995265;28;20366;-66
2022/05/26 15:43:21;;;;;;;5.55;1.00;;;;;;;;;;4994658;28;20030;-67
2022/05/26 15:45:48;;;;;;;7.30;0.82;;;;;;;;;;4994667;28;20494;-65
2022/05/26 15:48:14;;;;;;;4.03;0.90;;;;;;;;;;4994649;28;20368;-65
2022/05/26 15:50:39;;;;;;;2.92;0.88;;;;;;;;;;4993226;28;20109;-66
2022/05/26 15:53:05;;;;;;;4.90;0.90;;;;;;;;;;4994415;28;20041;-66
2022/05/26 15:55:31;;;;;;;4.22;0.82;;;;;;;;;;4994591;28;20030;-66
2022/05/26 15:58:00;;;;;;;7.45;1.08;;;;;;;;;;4994350;28;20034;-66